YPTN/KTR METAR and TAF weather

Enter ICAO airport designator
Station Type Date Time Source
YPTN METAR 2022/11/26 09:30 UTC NOAA

YPTN 260930Z AUTO 33006KT 9999 // NCD 33/21 Q1007 RF00.0/000.2 DL-N/DL-NE/DL-E


Station Type Date Time Source
YPTN Decoded METAR 2022/11/26 09:30 UTC NOAA

Tindal / Katherine, Australia (YPTN) 14-26S 132-16E 109M
Nov 26, 2022 - 04:30 AM EST / 2022.11.26 0930 UTC
Wind: from the NNW (330 degrees) at 7 MPH (6 KT):0
Visibility: greater than 7 mile(s):0
Temperature: 91 F (33 C)
Heat index: 96.1 F (35.6 C):1
Dew Point: 69 F (21 C)
Relative Humidity: 49%
Pressure (altimeter): 29.74 in. Hg (1007 hPa)
ob: YPTN 260930Z AUTO 33006KT 9999 // NCD 33/21 Q1007 RF00.0/000.2 DL-N/DL-NE/DL-E
cycle: 9

Station Type Date Time Source
YPTN TAF 2022/11/26 06:36 UTC NOAA

TAF YPTN 260527Z 2606/2706 31010KT 9999 SCT040
FM261200 VRB03KT 9999 SCT020
FM270400 32012KT 9999 SCT045 PROB40
TEMPO 2606/2614 VRB20G35KT 1000 TSRA SCT010 SCT050CB PROB40
TEMPO 2705/2706 VRB20G35KT 1000 TSRA SCT010 SCT050CB

Example: see airport list